sensor_id;sensor_type;location;lat;lon;timestamp;temperature;humidity
67817;DHT22;54614;47.576;7.524;2023-09-08T00:00:57;26.30;90.00
67817;DHT22;54614;47.576;7.524;2023-09-08T00:03:23;26.30;90.00
67817;DHT22;54614;47.576;7.524;2023-09-08T00:05:49;26.30;90.00
67817;DHT22;54614;47.576;7.524;2023-09-08T00:08:15;26.30;90.00
67817;DHT22;54614;47.576;7.524;2023-09-08T00:10:41;26.30;90.00
67817;DHT22;54614;47.576;7.524;2023-09-08T00:13:07;26.30;90.00
67817;DHT22;54614;47.576;7.524;2023-09-08T00:15:36;26.30;90.00
67817;DHT22;54614;47.576;7.524;2023-09-08T00:18:02;26.30;90.00
67817;DHT22;54614;47.576;7.524;2023-09-08T00:20:28;26.30;90.00
67817;DHT22;54614;47.576;7.524;2023-09-08T00:22:54;26.30;90.00
67817;DHT22;54614;47.576;7.524;2023-09-08T00:25:20;26.30;90.00
67817;DHT22;54614;47.576;7.524;2023-09-08T00:27:45;26.30;90.00
67817;DHT22;54614;47.576;7.524;2023-09-08T00:30:11;26.30;90.00
67817;DHT22;54614;47.576;7.524;2023-09-08T00:32:37;26.30;90.00
67817;DHT22;54614;47.576;7.524;2023-09-08T00:35:06;26.20;89.90
67817;DHT22;54614;47.576;7.524;2023-09-08T00:37:33;26.30;90.00
67817;DHT22;54614;47.576;7.524;2023-09-08T00:39:59;26.30;90.00
67817;DHT22;54614;47.576;7.524;2023-09-08T00:42:24;26.30;90.00
67817;DHT22;54614;47.576;7.524;2023-09-08T00:44:50;26.30;90.00
67817;DHT22;54614;47.576;7.524;2023-09-08T00:47:16;26.30;90.00
67817;DHT22;54614;47.576;7.524;2023-09-08T00:49:42;26.30;90.00
67817;DHT22;54614;47.576;7.524;2023-09-08T00:52:08;26.20;90.00
67817;DHT22;54614;47.576;7.524;2023-09-08T00:54:34;26.20;89.90
67817;DHT22;54614;47.576;7.524;2023-09-08T00:57:01;26.30;90.00
67817;DHT22;54614;47.576;7.524;2023-09-08T00:59:32;26.30;90.00
67817;DHT22;54614;47.576;7.524;2023-09-08T01:02:00;26.30;90.00
67817;DHT22;54614;47.576;7.524;2023-09-08T01:04:26;26.20;89.90
67817;DHT22;54614;47.576;7.524;2023-09-08T01:06:52;26.30;90.00
67817;DHT22;54614;47.576;7.524;2023-09-08T01:09:20;26.30;90.00
67817;DHT22;54614;47.576;7.524;2023-09-08T01:11:46;26.20;89.90
67817;DHT22;54614;47.576;7.524;2023-09-08T01:14:12;26.20;89.90
67817;DHT22;54614;47.576;7.524;2023-09-08T01:16:41;26.20;89.90
67817;DHT22;54614;47.576;7.524;2023-09-08T01:19:13;26.30;90.00
67817;DHT22;54614;47.576;7.524;2023-09-08T01:22:18;26.20;89.90
67817;DHT22;54614;47.576;7.524;2023-09-08T01:25:25;26.20;89.90
67817;DHT22;54614;47.576;7.524;2023-09-08T01:27:55;26.20;89.90
67817;DHT22;54614;47.576;7.524;2023-09-08T01:30:24;26.20;89.90
67817;DHT22;54614;47.576;7.524;2023-09-08T01:32:53;26.20;89.90
67817;DHT22;54614;47.576;7.524;2023-09-08T01:35:20;26.20;89.90
67817;DHT22;54614;47.576;7.524;2023-09-08T01:37:48;26.20;89.90
67817;DHT22;54614;47.576;7.524;2023-09-08T01:40:14;26.20;89.90
67817;DHT22;54614;47.576;7.524;2023-09-08T01:42:41;26.20;89.90
67817;DHT22;54614;47.576;7.524;2023-09-08T01:45:07;26.20;89.80
67817;DHT22;54614;47.576;7.524;2023-09-08T01:47:34;26.20;89.80
67817;DHT22;54614;47.576;7.524;2023-09-08T01:50:01;26.20;89.80
67817;DHT22;54614;47.576;7.524;2023-09-08T01:52:27;26.20;89.80
67817;DHT22;54614;47.576;7.524;2023-09-08T01:54:53;26.20;89.80
67817;DHT22;54614;47.576;7.524;2023-09-08T01:57:18;26.20;89.80
67817;DHT22;54614;47.576;7.524;2023-09-08T01:59:44;26.20;89.80
67817;DHT22;54614;47.576;7.524;2023-09-08T02:02:11;26.20;89.80
67817;DHT22;54614;47.576;7.524;2023-09-08T02:04:37;26.20;89.80
67817;DHT22;54614;47.576;7.524;2023-09-08T02:07:03;26.20;89.80
67817;DHT22;54614;47.576;7.524;2023-09-08T02:09:34;26.20;89.80
67817;DHT22;54614;47.576;7.524;2023-09-08T02:12:02;26.20;89.80
67817;DHT22;54614;47.576;7.524;2023-09-08T02:14:28;26.20;89.80
67817;DHT22;54614;47.576;7.524;2023-09-08T02:16:55;26.20;89.80
67817;DHT22;54614;47.576;7.524;2023-09-08T02:19:22;26.20;89.80
67817;DHT22;54614;47.576;7.524;2023-09-08T02:21:48;26.20;89.80
67817;DHT22;54614;47.576;7.524;2023-09-08T02:24:14;26.20;89.80
67817;DHT22;54614;47.576;7.524;2023-09-08T02:26:40;26.20;89.80
67817;DHT22;54614;47.576;7.524;2023-09-08T02:29:06;26.20;89.80
67817;DHT22;54614;47.576;7.524;2023-09-08T02:31:32;26.20;89.80
67817;DHT22;54614;47.576;7.524;2023-09-08T02:33:59;26.20;89.80
67817;DHT22;54614;47.576;7.524;2023-09-08T02:36:24;26.20;89.80
67817;DHT22;54614;47.576;7.524;2023-09-08T02:38:55;26.20;89.80
67817;DHT22;54614;47.576;7.524;2023-09-08T02:41:22;26.20;89.80
67817;DHT22;54614;47.576;7.524;2023-09-08T02:43:49;26.20;89.80
67817;DHT22;54614;47.576;7.524;2023-09-08T02:46:14;26.20;89.80
67817;DHT22;54614;47.576;7.524;2023-09-08T02:48:41;26.20;89.80
67817;DHT22;54614;47.576;7.524;2023-09-08T02:51:06;26.20;89.80
67817;DHT22;54614;47.576;7.524;2023-09-08T02:53:33;26.20;89.80
67817;DHT22;54614;47.576;7.524;2023-09-08T02:55:59;26.20;89.80
67817;DHT22;54614;47.576;7.524;2023-09-08T02:58:25;26.20;89.80
67817;DHT22;54614;47.576;7.524;2023-09-08T03:00:52;26.20;89.80
67817;DHT22;54614;47.576;7.524;2023-09-08T03:03:19;26.20;89.80
67817;DHT22;54614;47.576;7.524;2023-09-08T03:05:45;26.20;89.80
67817;DHT22;54614;47.576;7.524;2023-09-08T03:08:11;26.20;89.80
67817;DHT22;54614;47.576;7.524;2023-09-08T03:10:36;26.20;89.80
67817;DHT22;54614;47.576;7.524;2023-09-08T03:13:03;26.20;89.80
67817;DHT22;54614;47.576;7.524;2023-09-08T03:15:29;26.20;89.80
67817;DHT22;54614;47.576;7.524;2023-09-08T03:17:57;26.20;89.80
67817;DHT22;54614;47.576;7.524;2023-09-08T03:20:26;26.20;89.80
67817;DHT22;54614;47.576;7.524;2023-09-08T03:22:54;26.20;89.80
67817;DHT22;54614;47.576;7.524;2023-09-08T03:25:20;26.20;89.80
67817;DHT22;54614;47.576;7.524;2023-09-08T03:27:46;26.20;89.70
67817;DHT22;54614;47.576;7.524;2023-09-08T03:30:12;26.20;89.80
67817;DHT22;54614;47.576;7.524;2023-09-08T03:32:38;26.20;89.80
67817;DHT22;54614;47.576;7.524;2023-09-08T03:35:05;26.20;89.80
67817;DHT22;54614;47.576;7.524;2023-09-08T03:37:36;26.20;89.80
67817;DHT22;54614;47.576;7.524;2023-09-08T03:40:02;26.20;89.80
67817;DHT22;54614;47.576;7.524;2023-09-08T03:42:30;26.20;89.80
67817;DHT22;54614;47.576;7.524;2023-09-08T03:44:56;26.20;89.80
67817;DHT22;54614;47.576;7.524;2023-09-08T03:47:22;26.20;89.80
67817;DHT22;54614;47.576;7.524;2023-09-08T03:49:48;26.20;89.80
67817;DHT22;54614;47.576;7.524;2023-09-08T03:52:13;26.20;89.80
67817;DHT22;54614;47.576;7.524;2023-09-08T03:54:39;26.20;89.80
67817;DHT22;54614;47.576;7.524;2023-09-08T03:57:05;26.20;89.80
67817;DHT22;54614;47.576;7.524;2023-09-08T03:59:31;26.20;89.90
67817;DHT22;54614;47.576;7.524;2023-09-08T04:01:57;26.20;89.80
67817;DHT22;54614;47.576;7.524;2023-09-08T04:04:22;26.20;89.90
67817;DHT22;54614;47.576;7.524;2023-09-08T04:06:48;26.20;89.80
67817;DHT22;54614;47.576;7.524;2023-09-08T04:09:14;26.20;89.80
67817;DHT22;54614;47.576;7.524;2023-09-08T04:11:40;26.20;89.80
67817;DHT22;54614;47.576;7.524;2023-09-08T04:14:05;26.20;89.80
67817;DHT22;54614;47.576;7.524;2023-09-08T04:16:31;26.20;89.80
67817;DHT22;54614;47.576;7.524;2023-09-08T04:18:57;26.20;90.60
67817;DHT22;54614;47.576;7.524;2023-09-08T04:21:23;26.20;90.50
67817;DHT22;54614;47.576;7.524;2023-09-08T04:23:48;26.20;90.70
67817;DHT22;54614;47.576;7.524;2023-09-08T04:26:14;26.20;90.60
67817;DHT22;54614;47.576;7.524;2023-09-08T04:28:40;26.30;90.60
67817;DHT22;54614;47.576;7.524;2023-09-08T04:31:05;26.30;90.10
67817;DHT22;54614;47.576;7.524;2023-09-08T04:33:31;26.30;90.00
67817;DHT22;54614;47.576;7.524;2023-09-08T04:35:57;26.30;90.00
67817;DHT22;54614;47.576;7.524;2023-09-08T04:38:22;26.30;90.00
67817;DHT22;54614;47.576;7.524;2023-09-08T04:40:48;26.20;90.00
67817;DHT22;54614;47.576;7.524;2023-09-08T04:43:14;26.20;90.20
67817;DHT22;54614;47.576;7.524;2023-09-08T04:45:40;26.20;90.00
67817;DHT22;54614;47.576;7.524;2023-09-08T04:48:06;26.20;90.10
67817;DHT22;54614;47.576;7.524;2023-09-08T04:50:32;26.20;90.70
67817;DHT22;54614;47.576;7.524;2023-09-08T04:52:58;26.20;90.60
67817;DHT22;54614;47.576;7.524;2023-09-08T04:55:24;26.20;89.70
67817;DHT22;54614;47.576;7.524;2023-09-08T04:57:49;25.70;87.40
67817;DHT22;54614;47.576;7.524;2023-09-08T05:00:15;25.30;88.30
67817;DHT22;54614;47.576;7.524;2023-09-08T05:02:42;24.90;91.60
67817;DHT22;54614;47.576;7.524;2023-09-08T05:05:07;25.00;90.50
67817;DHT22;54614;47.576;7.524;2023-09-08T05:07:33;25.00;90.30
67817;DHT22;54614;47.576;7.524;2023-09-08T05:09:59;24.90;90.40
67817;DHT22;54614;47.576;7.524;2023-09-08T05:12:25;24.70;91.10
67817;DHT22;54614;47.576;7.524;2023-09-08T05:14:50;24.50;91.10
67817;DHT22;54614;47.576;7.524;2023-09-08T05:17:22;24.40;91.30
67817;DHT22;54614;47.576;7.524;2023-09-08T05:19:49;24.40;91.10
67817;DHT22;54614;47.576;7.524;2023-09-08T05:22:14;24.50;90.90
67817;DHT22;54614;47.576;7.524;2023-09-08T05:24:40;24.50;91.00
67817;DHT22;54614;47.576;7.524;2023-09-08T05:27:06;24.50;91.00
67817;DHT22;54614;47.576;7.524;2023-09-08T05:29:32;24.50;91.00
67817;DHT22;54614;47.576;7.524;2023-09-08T05:31:57;24.50;91.20
67817;DHT22;54614;47.576;7.524;2023-09-08T05:34:23;24.40;91.00
67817;DHT22;54614;47.576;7.524;2023-09-08T05:36:49;24.50;91.40
67817;DHT22;54614;47.576;7.524;2023-09-08T05:39:15;24.50;91.10
67817;DHT22;54614;47.576;7.524;2023-09-08T05:44:09;24.00;81.10
67817;DHT22;54614;47.576;7.524;2023-09-08T05:46:34;23.70;83.60
67817;DHT22;54614;47.576;7.524;2023-09-08T05:49:00;23.90;84.00
67817;DHT22;54614;47.576;7.524;2023-09-08T05:51:26;24.10;86.90
67817;DHT22;54614;47.576;7.524;2023-09-08T05:53:52;24.20;87.20
67817;DHT22;54614;47.576;7.524;2023-09-08T05:56:19;24.30;86.20
67817;DHT22;54614;47.576;7.524;2023-09-08T05:58:47;24.40;85.80
67817;DHT22;54614;47.576;7.524;2023-09-08T06:01:14;24.50;85.90
67817;DHT22;54614;47.576;7.524;2023-09-08T06:03:41;24.40;86.00
67817;DHT22;54614;47.576;7.524;2023-09-08T06:06:07;24.50;85.60
67817;DHT22;54614;47.576;7.524;2023-09-08T06:08:32;24.50;84.50
67817;DHT22;54614;47.576;7.524;2023-09-08T06:10:58;24.50;84.30
67817;DHT22;54614;47.576;7.524;2023-09-08T06:13:24;24.60;83.90
67817;DHT22;54614;47.576;7.524;2023-09-08T06:15:51;24.70;83.70
67817;DHT22;54614;47.576;7.524;2023-09-08T06:18:16;24.80;83.70
67817;DHT22;54614;47.576;7.524;2023-09-08T06:20:46;24.80;83.60
67817;DHT22;54614;47.576;7.524;2023-09-08T06:23:12;24.90;83.70
67817;DHT22;54614;47.576;7.524;2023-09-08T06:25:39;24.90;83.70
67817;DHT22;54614;47.576;7.524;2023-09-08T06:28:05;24.90;83.30
67817;DHT22;54614;47.576;7.524;2023-09-08T06:30:31;25.00;84.90
67817;DHT22;54614;47.576;7.524;2023-09-08T06:32:57;25.20;86.40
67817;DHT22;54614;47.576;7.524;2023-09-08T06:35:23;25.30;86.30
67817;DHT22;54614;47.576;7.524;2023-09-08T06:37:49;25.40;86.20
67817;DHT22;54614;47.576;7.524;2023-09-08T06:40:14;25.40;86.00
67817;DHT22;54614;47.576;7.524;2023-09-08T06:42:40;25.40;86.00
67817;DHT22;54614;47.576;7.524;2023-09-08T06:45:06;25.50;86.00
67817;DHT22;54614;47.576;7.524;2023-09-08T06:47:32;25.50;86.00
67817;DHT22;54614;47.576;7.524;2023-09-08T06:49:58;25.50;85.90
67817;DHT22;54614;47.576;7.524;2023-09-08T06:52:24;25.60;85.90
67817;DHT22;54614;47.576;7.524;2023-09-08T06:54:50;25.60;86.10
67817;DHT22;54614;47.576;7.524;2023-09-08T06:57:18;25.60;85.90
67817;DHT22;54614;47.576;7.524;2023-09-08T06:59:47;25.70;86.10
67817;DHT22;54614;47.576;7.524;2023-09-08T07:02:12;25.70;86.00
67817;DHT22;54614;47.576;7.524;2023-09-08T07:04:38;25.70;85.80
67817;DHT22;54614;47.576;7.524;2023-09-08T07:07:04;25.80;85.90
67817;DHT22;54614;47.576;7.524;2023-09-08T07:09:36;25.80;85.90
67817;DHT22;54614;47.576;7.524;2023-09-08T07:12:06;25.80;85.80
67817;DHT22;54614;47.576;7.524;2023-09-08T07:14:32;25.80;85.80
67817;DHT22;54614;47.576;7.524;2023-09-08T07:16:58;25.90;86.40
67817;DHT22;54614;47.576;7.524;2023-09-08T07:19:24;25.90;86.40
67817;DHT22;54614;47.576;7.524;2023-09-08T07:21:51;25.90;86.30
67817;DHT22;54614;47.576;7.524;2023-09-08T07:24:17;25.90;86.30
67817;DHT22;54614;47.576;7.524;2023-09-08T07:26:43;26.00;86.40
67817;DHT22;54614;47.576;7.524;2023-09-08T07:29:08;26.00;86.90
67817;DHT22;54614;47.576;7.524;2023-09-08T07:31:34;26.00;86.20
67817;DHT22;54614;47.576;7.524;2023-09-08T07:34:00;26.00;86.20
67817;DHT22;54614;47.576;7.524;2023-09-08T07:36:26;26.00;86.10
67817;DHT22;54614;47.576;7.524;2023-09-08T07:38:52;26.10;86.20
67817;DHT22;54614;47.576;7.524;2023-09-08T07:41:17;26.10;86.20
67817;DHT22;54614;47.576;7.524;2023-09-08T07:43:43;26.10;86.30
67817;DHT22;54614;47.576;7.524;2023-09-08T07:46:11;26.10;86.30
67817;DHT22;54614;47.576;7.524;2023-09-08T07:48:37;26.20;86.30
67817;DHT22;54614;47.576;7.524;2023-09-08T07:51:02;26.20;87.00
67817;DHT22;54614;47.576;7.524;2023-09-08T07:53:28;26.20;87.10
67817;DHT22;54614;47.576;7.524;2023-09-08T07:55:54;26.20;87.20
67817;DHT22;54614;47.576;7.524;2023-09-08T07:58:21;26.20;87.20
67817;DHT22;54614;47.576;7.524;2023-09-08T08:00:47;26.20;87.30
67817;DHT22;54614;47.576;7.524;2023-09-08T08:03:12;26.20;87.40
67817;DHT22;54614;47.576;7.524;2023-09-08T08:05:38;26.20;87.50
67817;DHT22;54614;47.576;7.524;2023-09-08T08:08:04;26.20;87.50
67817;DHT22;54614;47.576;7.524;2023-09-08T08:10:30;26.20;87.60
67817;DHT22;54614;47.576;7.524;2023-09-08T08:12:56;26.20;87.60
67817;DHT22;54614;47.576;7.524;2023-09-08T08:15:33;26.30;87.50
67817;DHT22;54614;47.576;7.524;2023-09-08T08:18:04;26.30;87.40
67817;DHT22;54614;47.576;7.524;2023-09-08T08:20:31;26.30;87.30
67817;DHT22;54614;47.576;7.524;2023-09-08T08:23:01;26.40;87.30
67817;DHT22;54614;47.576;7.524;2023-09-08T08:25:27;26.40;87.30
67817;DHT22;54614;47.576;7.524;2023-09-08T08:27:53;26.40;87.30
67817;DHT22;54614;47.576;7.524;2023-09-08T08:30:19;26.40;87.80
67817;DHT22;54614;47.576;7.524;2023-09-08T08:32:45;26.40;87.60
67817;DHT22;54614;47.576;7.524;2023-09-08T08:35:11;26.40;87.70
67817;DHT22;54614;47.576;7.524;2023-09-08T08:37:40;26.40;87.70
67817;DHT22;54614;47.576;7.524;2023-09-08T08:40:06;26.40;87.80
67817;DHT22;54614;47.576;7.524;2023-09-08T08:42:34;26.40;88.00
67817;DHT22;54614;47.576;7.524;2023-09-08T08:45:00;26.30;88.00
67817;DHT22;54614;47.576;7.524;2023-09-08T08:47:28;26.30;88.10
67817;DHT22;54614;47.576;7.524;2023-09-08T08:49:58;26.30;88.00
67817;DHT22;54614;47.576;7.524;2023-09-08T08:52:26;26.30;88.00
67817;DHT22;54614;47.576;7.524;2023-09-08T08:54:52;26.30;87.90
67817;DHT22;54614;47.576;7.524;2023-09-08T08:57:20;26.40;88.00
67817;DHT22;54614;47.576;7.524;2023-09-08T08:59:47;26.40;87.90
67817;DHT22;54614;47.576;7.524;2023-09-08T09:02:14;26.40;87.80
67817;DHT22;54614;47.576;7.524;2023-09-08T09:04:41;26.40;87.80
67817;DHT22;54614;47.576;7.524;2023-09-08T09:07:07;26.40;87.70
67817;DHT22;54614;47.576;7.524;2023-09-08T09:09:33;26.40;87.60
67817;DHT22;54614;47.576;7.524;2023-09-08T09:11:59;26.50;87.70
67817;DHT22;54614;47.576;7.524;2023-09-08T09:14:27;26.50;87.60
67817;DHT22;54614;47.576;7.524;2023-09-08T09:16:56;26.50;87.60
67817;DHT22;54614;47.576;7.524;2023-09-08T09:19:23;26.50;87.50
67817;DHT22;54614;47.576;7.524;2023-09-08T09:21:57;26.50;87.40
67817;DHT22;54614;47.576;7.524;2023-09-08T09:24:41;26.50;88.00
67817;DHT22;54614;47.576;7.524;2023-09-08T09:27:09;26.60;88.60
67817;DHT22;54614;47.576;7.524;2023-09-08T09:29:51;26.50;88.40
67817;DHT22;54614;47.576;7.524;2023-09-08T09:32:17;26.60;88.60
67817;DHT22;54614;47.576;7.524;2023-09-08T09:34:50;26.60;88.40
67817;DHT22;54614;47.576;7.524;2023-09-08T09:37:22;26.60;88.40
67817;DHT22;54614;47.576;7.524;2023-09-08T09:39:50;26.60;88.30
67817;DHT22;54614;47.576;7.524;2023-09-08T09:42:17;26.60;88.30
67817;DHT22;54614;47.576;7.524;2023-09-08T09:44:43;26.60;88.20
67817;DHT22;54614;47.576;7.524;2023-09-08T09:47:09;26.60;88.20
67817;DHT22;54614;47.576;7.524;2023-09-08T09:49:47;26.60;88.20
67817;DHT22;54614;47.576;7.524;2023-09-08T09:52:20;26.70;89.40
67817;DHT22;54614;47.576;7.524;2023-09-08T09:54:48;26.70;89.20
67817;DHT22;54614;47.576;7.524;2023-09-08T09:57:20;26.70;89.10
67817;DHT22;54614;47.576;7.524;2023-09-08T09:59:47;26.70;89.10
67817;DHT22;54614;47.576;7.524;2023-09-08T10:02:18;26.70;89.10
67817;DHT22;54614;47.576;7.524;2023-09-08T10:04:48;26.70;89.10
67817;DHT22;54614;47.576;7.524;2023-09-08T10:07:18;26.70;89.00
67817;DHT22;54614;47.576;7.524;2023-09-08T10:09:44;26.70;89.10
67817;DHT22;54614;47.576;7.524;2023-09-08T10:12:13;26.70;89.10
67817;DHT22;54614;47.576;7.524;2023-09-08T10:14:43;26.70;89.10
67817;DHT22;54614;47.576;7.524;2023-09-08T10:17:15;26.70;89.10
67817;DHT22;54614;47.576;7.524;2023-09-08T10:19:46;26.70;89.00
67817;DHT22;54614;47.576;7.524;2023-09-08T10:22:20;26.70;89.00
67817;DHT22;54614;47.576;7.524;2023-09-08T10:24:50;26.70;89.10
67817;DHT22;54614;47.576;7.524;2023-09-08T10:27:18;26.80;89.10
67817;DHT22;54614;47.576;7.524;2023-09-08T10:29:47;26.80;89.00
67817;DHT22;54614;47.576;7.524;2023-09-08T10:32:14;26.80;89.20
67817;DHT22;54614;47.576;7.524;2023-09-08T10:34:43;26.80;89.20
67817;DHT22;54614;47.576;7.524;2023-09-08T10:37:24;26.80;89.20
67817;DHT22;54614;47.576;7.524;2023-09-08T10:39:54;26.80;89.20
67817;DHT22;54614;47.576;7.524;2023-09-08T10:42:23;26.80;89.20
67817;DHT22;54614;47.576;7.524;2023-09-08T10:45:02;26.80;89.30
67817;DHT22;54614;47.576;7.524;2023-09-08T10:50:19;26.80;89.20
67817;DHT22;54614;47.576;7.524;2023-09-08T10:53:11;26.70;89.40
67817;DHT22;54614;47.576;7.524;2023-09-08T10:55:49;26.80;89.40
67817;DHT22;54614;47.576;7.524;2023-09-08T11:01:05;26.80;89.40
67817;DHT22;54614;47.576;7.524;2023-09-08T11:06:03;26.70;89.30
67817;DHT22;54614;47.576;7.524;2023-09-08T11:08:29;26.70;89.50
67817;DHT22;54614;47.576;7.524;2023-09-08T11:10:56;26.70;89.50
67817;DHT22;54614;47.576;7.524;2023-09-08T11:13:22;26.70;89.50
67817;DHT22;54614;47.576;7.524;2023-09-08T11:15:51;26.80;89.60
67817;DHT22;54614;47.576;7.524;2023-09-08T11:18:25;26.70;89.60
67817;DHT22;54614;47.576;7.524;2023-09-08T11:20:52;26.70;89.50
67817;DHT22;54614;47.576;7.524;2023-09-08T11:23:19;26.70;89.60
67817;DHT22;54614;47.576;7.524;2023-09-08T11:25:46;26.70;89.60
67817;DHT22;54614;47.576;7.524;2023-09-08T11:28:12;26.80;89.60
67817;DHT22;54614;47.576;7.524;2023-09-08T11:30:39;26.80;90.20
67817;DHT22;54614;47.576;7.524;2023-09-08T11:33:14;26.80;89.80
67817;DHT22;54614;47.576;7.524;2023-09-08T11:35:40;26.70;89.70
67817;DHT22;54614;47.576;7.524;2023-09-08T11:38:10;26.80;89.80
67817;DHT22;54614;47.576;7.524;2023-09-08T11:40:36;26.80;90.00
67817;DHT22;54614;47.576;7.524;2023-09-08T11:43:03;26.80;90.00
67817;DHT22;54614;47.576;7.524;2023-09-08T11:45:31;26.80;90.00
67817;DHT22;54614;47.576;7.524;2023-09-08T11:48:00;26.80;90.00
67817;DHT22;54614;47.576;7.524;2023-09-08T11:50:26;26.80;90.00
67817;DHT22;54614;47.576;7.524;2023-09-08T11:52:53;26.70;90.00
67817;DHT22;54614;47.576;7.524;2023-09-08T11:55:21;26.70;90.00
67817;DHT22;54614;47.576;7.524;2023-09-08T11:57:49;26.80;90.10
67817;DHT22;54614;47.576;7.524;2023-09-08T12:00:20;26.70;90.10
67817;DHT22;54614;47.576;7.524;2023-09-08T12:02:49;26.70;90.20
67817;DHT22;54614;47.576;7.524;2023-09-08T12:05:28;26.70;90.50
67817;DHT22;54614;47.576;7.524;2023-09-08T12:07:56;26.70;90.20
67817;DHT22;54614;47.576;7.524;2023-09-08T12:10:24;26.70;90.30
67817;DHT22;54614;47.576;7.524;2023-09-08T12:12:54;26.70;90.40
67817;DHT22;54614;47.576;7.524;2023-09-08T12:15:33;26.70;90.50
67817;DHT22;54614;47.576;7.524;2023-09-08T12:18:02;26.70;90.60
67817;DHT22;54614;47.576;7.524;2023-09-08T12:20:30;26.70;90.70
67817;DHT22;54614;47.576;7.524;2023-09-08T12:23:04;26.70;90.70
67817;DHT22;54614;47.576;7.524;2023-09-08T12:25:33;26.70;91.00
67817;DHT22;54614;47.576;7.524;2023-09-08T12:28:00;26.70;91.10
67817;DHT22;54614;47.576;7.524;2023-09-08T12:30:28;26.70;92.10
67817;DHT22;54614;47.576;7.524;2023-09-08T12:32:59;26.70;92.30
67817;DHT22;54614;47.576;7.524;2023-09-08T12:35:27;26.70;92.00
67817;DHT22;54614;47.576;7.524;2023-09-08T12:40:25;26.70;91.10
67817;DHT22;54614;47.576;7.524;2023-09-08T12:42:52;26.70;91.20
67817;DHT22;54614;47.576;7.524;2023-09-08T12:45:19;26.70;91.20
67817;DHT22;54614;47.576;7.524;2023-09-08T12:47:46;26.70;91.30
67817;DHT22;54614;47.576;7.524;2023-09-08T12:50:12;26.70;91.30
67817;DHT22;54614;47.576;7.524;2023-09-08T12:52:39;26.70;91.10
67817;DHT22;54614;47.576;7.524;2023-09-08T12:55:05;26.70;91.10
67817;DHT22;54614;47.576;7.524;2023-09-08T12:57:32;26.70;91.00
67817;DHT22;54614;47.576;7.524;2023-09-08T12:59:58;26.70;91.10
67817;DHT22;54614;47.576;7.524;2023-09-08T13:02:24;26.60;91.10
67817;DHT22;54614;47.576;7.524;2023-09-08T13:04:50;26.60;91.00
67817;DHT22;54614;47.576;7.524;2023-09-08T13:07:16;26.60;91.00
67817;DHT22;54614;47.576;7.524;2023-09-08T13:09:43;26.60;90.90
67817;DHT22;54614;47.576;7.524;2023-09-08T13:12:09;26.60;90.90
67817;DHT22;54614;47.576;7.524;2023-09-08T13:14:36;26.70;90.90
67817;DHT22;54614;47.576;7.524;2023-09-08T13:17:02;26.70;91.00
67817;DHT22;54614;47.576;7.524;2023-09-08T13:19:28;26.60;90.80
67817;DHT22;54614;47.576;7.524;2023-09-08T13:21:55;26.70;90.90
67817;DHT22;54614;47.576;7.524;2023-09-08T13:24:21;26.60;90.90
67817;DHT22;54614;47.576;7.524;2023-09-08T13:26:47;26.60;91.00
67817;DHT22;54614;47.576;7.524;2023-09-08T13:29:13;26.70;90.90
67817;DHT22;54614;47.576;7.524;2023-09-08T13:31:39;26.60;91.00
67817;DHT22;54614;47.576;7.524;2023-09-08T13:34:05;26.70;91.00
67817;DHT22;54614;47.576;7.524;2023-09-08T13:36:31;26.70;91.00
67817;DHT22;54614;47.576;7.524;2023-09-08T13:38:57;26.60;91.10
67817;DHT22;54614;47.576;7.524;2023-09-08T13:41:24;26.70;91.10
67817;DHT22;54614;47.576;7.524;2023-09-08T13:43:49;26.60;91.10
67817;DHT22;54614;47.576;7.524;2023-09-08T13:46:16;26.60;91.10
67817;DHT22;54614;47.576;7.524;2023-09-08T13:48:42;26.60;91.10
67817;DHT22;54614;47.576;7.524;2023-09-08T13:51:08;26.60;91.10
67817;DHT22;54614;47.576;7.524;2023-09-08T13:53:34;26.60;91.20
67817;DHT22;54614;47.576;7.524;2023-09-08T13:56:00;26.70;91.40
67817;DHT22;54614;47.576;7.524;2023-09-08T13:58:26;26.70;91.30
67817;DHT22;54614;47.576;7.524;2023-09-08T14:00:52;26.60;91.20
67817;DHT22;54614;47.576;7.524;2023-09-08T14:03:18;26.70;91.20
67817;DHT22;54614;47.576;7.524;2023-09-08T14:05:46;26.60;91.10
67817;DHT22;54614;47.576;7.524;2023-09-08T14:08:12;26.70;91.20
67817;DHT22;54614;47.576;7.524;2023-09-08T14:10:38;26.70;91.20
67817;DHT22;54614;47.576;7.524;2023-09-08T14:13:03;26.70;91.20
67817;DHT22;54614;47.576;7.524;2023-09-08T14:15:29;26.70;91.10
67817;DHT22;54614;47.576;7.524;2023-09-08T14:17:55;26.70;91.00
67817;DHT22;54614;47.576;7.524;2023-09-08T14:20:22;26.70;91.00
67817;DHT22;54614;47.576;7.524;2023-09-08T14:22:47;26.70;90.90
67817;DHT22;54614;47.576;7.524;2023-09-08T14:25:13;26.60;90.90
67817;DHT22;54614;47.576;7.524;2023-09-08T14:27:39;26.60;90.90
67817;DHT22;54614;47.576;7.524;2023-09-08T14:30:05;26.70;91.00
67817;DHT22;54614;47.576;7.524;2023-09-08T14:32:31;26.70;90.90
67817;DHT22;54614;47.576;7.524;2023-09-08T14:34:57;26.70;90.90
67817;DHT22;54614;47.576;7.524;2023-09-08T14:37:23;26.70;91.00
67817;DHT22;54614;47.576;7.524;2023-09-08T14:39:49;26.70;90.90
67817;DHT22;54614;47.576;7.524;2023-09-08T14:42:15;26.70;90.90
67817;DHT22;54614;47.576;7.524;2023-09-08T14:44:41;26.70;91.30
67817;DHT22;54614;47.576;7.524;2023-09-08T14:47:07;26.70;91.00
67817;DHT22;54614;47.576;7.524;2023-09-08T14:49:34;26.70;90.90
67817;DHT22;54614;47.576;7.524;2023-09-08T14:52:00;26.70;90.90
67817;DHT22;54614;47.576;7.524;2023-09-08T14:54:25;26.70;91.00
67817;DHT22;54614;47.576;7.524;2023-09-08T14:56:51;26.70;91.00
67817;DHT22;54614;47.576;7.524;2023-09-08T14:59:17;26.70;91.10
67817;DHT22;54614;47.576;7.524;2023-09-08T15:01:43;26.70;91.10
67817;DHT22;54614;47.576;7.524;2023-09-08T15:04:10;26.60;90.90
67817;DHT22;54614;47.576;7.524;2023-09-08T15:06:36;26.70;91.00
67817;DHT22;54614;47.576;7.524;2023-09-08T15:09:02;26.70;90.80
67817;DHT22;54614;47.576;7.524;2023-09-08T15:11:28;26.70;90.90
67817;DHT22;54614;47.576;7.524;2023-09-08T15:13:54;26.70;90.90
67817;DHT22;54614;47.576;7.524;2023-09-08T15:16:20;26.70;90.80
67817;DHT22;54614;47.576;7.524;2023-09-08T15:18:47;26.70;90.80
67817;DHT22;54614;47.576;7.524;2023-09-08T15:21:13;26.70;90.80
67817;DHT22;54614;47.576;7.524;2023-09-08T15:23:39;26.70;90.90
67817;DHT22;54614;47.576;7.524;2023-09-08T15:26:04;26.60;90.90
67817;DHT22;54614;47.576;7.524;2023-09-08T15:28:30;26.70;91.00
67817;DHT22;54614;47.576;7.524;2023-09-08T15:30:56;26.70;90.90
67817;DHT22;54614;47.576;7.524;2023-09-08T15:33:22;26.70;90.90
67817;DHT22;54614;47.576;7.524;2023-09-08T15:35:49;26.70;90.80
67817;DHT22;54614;47.576;7.524;2023-09-08T15:38:17;26.70;90.80
67817;DHT22;54614;47.576;7.524;2023-09-08T15:43:31;26.70;90.80
67817;DHT22;54614;47.576;7.524;2023-09-08T15:45:57;26.70;91.00